Time;durP1;ratioP1;P1;durP2;ratioP2;P2;SDS_P1;SDS_P2;PMS_P1;PMS_P2;Temp;Humidity;BMP_temperature;BMP_pressure;BME280_temperature;BME280_humidity;BME280_pressure;Samples;Min_cycle;Max_cycle;Signal;HPM_P1;HPM_P2
2022/01/28 00:00:49;;;;;;;12.32;2.28;;;;;;;5.22;92.30;103077.72;4934047;29;20058;-73
2022/01/28 00:03:16;;;;;;;22.17;3.65;;;;;;;5.26;91.67;103086.53;4934452;29;20118;-73
2022/01/28 00:05:42;;;;;;;8.68;2.95;;;;;;;5.34;90.85;103081.38;4934392;29;20035;-73
2022/01/28 00:08:07;;;;;;;10.90;2.17;;;;;;;5.36;91.17;103093.66;4933867;29;20047;-73
2022/01/28 00:10:34;;;;;;;21.13;3.22;;;;;;;5.36;91.59;103087.53;4934034;29;20377;-74
2022/01/28 00:15:37;;;;;;;17.75;2.40;;;;;;;5.35;91.07;103104.16;4934140;29;20044;-73
2022/01/28 00:39:35;;;;;;;11.73;2.03;;;;;;;5.36;92.76;103113.81;5048004;28;20047;-74
2022/01/28 00:42:00;;;;;;;14.98;2.65;;;;;;;5.35;93.46;103109.41;5053042;28;20025;-74
2022/01/28 00:44:25;;;;;;;16.40;2.38;;;;;;;5.30;94.32;103104.06;5052542;28;20025;-73
2022/01/28 00:46:51;;;;;;;12.15;1.85;;;;;;;5.32;94.66;103111.97;5052839;28;20075;-74
2022/01/28 00:49:16;;;;;;;11.75;2.17;;;;;;;5.33;93.93;103114.66;5052494;28;20110;-74
2022/01/28 00:51:41;;;;;;;9.52;2.50;;;;;;;5.40;93.86;103127.00;5052921;28;20127;-74
2022/01/28 00:54:07;;;;;;;17.40;2.20;;;;;;;5.44;94.86;103127.03;5052185;28;20486;-74
2022/01/28 00:56:32;;;;;;;16.02;2.55;;;;;;;5.43;94.70;103141.03;5052891;28;20029;-74
2022/01/28 00:58:57;;;;;;;12.82;1.90;;;;;;;5.45;94.23;103137.56;5052737;28;20440;-74
2022/01/28 01:01:23;;;;;;;13.35;2.13;;;;;;;5.44;93.85;103138.44;5052212;28;20028;-74
2022/01/28 01:03:48;;;;;;;12.73;2.30;;;;;;;5.45;94.11;103129.69;5052362;28;20025;-74
2022/01/28 01:06:14;;;;;;;12.00;1.77;;;;;;;5.47;93.85;103127.06;5052759;28;20468;-74
2022/01/28 01:08:39;;;;;;;14.88;2.40;;;;;;;5.47;94.24;103127.94;5052681;28;20376;-74
2022/01/28 01:11:05;;;;;;;11.73;2.42;;;;;;;5.47;93.88;103125.31;5052074;28;20039;-74
2022/01/28 01:13:35;;;;;;;9.75;1.85;;;;;;;5.47;93.84;103140.22;5052447;28;20396;-74
2022/01/28 01:16:01;;;;;;;10.35;2.55;;;;;;;5.43;94.50;103133.16;5051919;28;20029;-74
2022/01/28 01:21:18;;;;;;;13.90;1.92;;;;;;;5.30;95.54;103132.09;5052206;28;20044;-74
2022/01/28 01:23:51;;;;;;;15.23;2.13;;;;;;;5.28;96.38;103141.69;5052469;28;20469;-74
2022/01/28 01:26:16;;;;;;;16.92;2.42;;;;;;;5.25;96.91;103140.78;5051846;28;20029;-74
2022/01/28 01:28:43;;;;;;;20.10;2.30;;;;;;;5.22;97.07;103147.75;5052130;28;20032;-74
2022/01/28 01:31:14;;;;;;;19.33;2.97;;;;;;;5.21;97.76;103159.13;5051949;28;20520;-74
2022/01/28 01:33:46;;;;;;;20.58;2.55;;;;;;;5.23;99.08;103162.63;5052446;28;20029;-74
2022/01/28 01:36:12;;;;;;;11.38;2.30;;;;;;;5.24;99.47;103162.69;5052381;28;20029;-74
2022/01/28 01:38:39;;;;;;;12.45;3.38;;;;;;;5.26;99.47;103167.94;5052330;28;20078;-74
2022/01/28 01:41:10;;;;;;;14.35;2.38;;;;;;;5.26;99.37;103175.84;5051690;28;20017;-74
2022/01/28 01:47:13;;;;;;;19.15;2.13;;;;;;;5.19;100.00;103177.50;4975129;28;20143;-73
2022/01/28 01:52:15;;;;;;;15.20;2.42;;;;;;;5.32;100.00;103186.44;4975018;28;20053;-74
2022/01/28 01:54:43;;;;;;;16.58;2.40;;;;;;;5.43;100.00;103186.59;4975346;28;20035;-74
2022/01/28 01:57:11;;;;;;;14.30;2.08;;;;;;;5.52;100.00;103183.22;4974572;28;20030;-74
2022/01/28 01:59:38;;;;;;;18.45;2.53;;;;;;;5.63;99.32;103188.63;4975255;28;20037;-74
2022/01/28 02:02:04;;;;;;;13.60;1.90;;;;;;;5.76;96.85;103193.19;4975167;28;20419;-74
2022/01/28 02:04:30;;;;;;;10.73;1.75;;;;;;;5.89;96.54;103202.09;4974710;28;20047;-74
2022/01/28 02:06:56;;;;;;;14.15;2.10;;;;;;;5.90;97.65;103215.25;4974641;28;20545;-74
2022/01/28 02:09:21;;;;;;;9.07;1.65;;;;;;;5.80;99.17;103200.22;4974514;28;20073;-73
2022/01/28 02:11:46;;;;;;;9.38;1.70;;;;;;;5.71;97.54;103197.50;4955252;29;20114;-73
2022/01/28 02:14:11;;;;;;;8.68;1.52;;;;;;;5.58;97.35;103199.94;4968638;28;20580;-74
2022/01/28 02:16:37;;;;;;;6.35;1.40;;;;;;;5.46;97.06;103193.63;4974644;28;20482;-74
2022/01/28 02:19:03;;;;;;;7.22;1.42;;;;;;;5.34;97.60;103205.72;4974599;28;20101;-74
2022/01/28 02:21:33;;;;;;;6.72;1.40;;;;;;;5.26;98.76;103194.22;4974733;28;20026;-73
2022/01/28 02:24:02;;;;;;;8.48;1.55;;;;;;;5.16;98.65;103192.31;5024675;28;20045;-74
2022/01/28 02:26:29;;;;;;;9.57;2.05;;;;;;;5.06;100.00;103199.16;5055630;28;20052;-72
2022/01/28 02:28:57;;;;;;;9.48;1.80;;;;;;;4.93;100.00;103193.69;5055071;28;20044;-72
2022/01/28 02:31:23;;;;;;;8.98;1.67;;;;;;;4.81;99.90;103203.09;5055628;28;20043;-72
2022/01/28 02:33:50;;;;;;;10.50;1.90;;;;;;;4.67;100.00;103211.63;5055314;28;20037;-73
2022/01/28 02:36:16;;;;;;;11.48;1.70;;;;;;;4.54;100.00;103210.53;5055421;28;20083;-73
2022/01/28 02:38:41;;;;;;;14.98;2.67;;;;;;;4.52;100.00;103200.88;5055527;28;20032;-73
2022/01/28 02:41:07;;;;;;;11.10;1.70;;;;;;;4.50;100.00;103210.44;5055023;28;20079;-74
2022/01/28 02:46:20;;;;;;;12.02;2.10;;;;;;;4.46;100.00;103201.63;5054982;28;20426;-73
2022/01/28 02:48:59;;;;;;;20.75;3.45;;;;;;;4.56;100.00;103213.19;5054805;28;20032;-74
2022/01/28 02:51:24;;;;;;;16.83;2.58;;;;;;;4.59;100.00;103205.34;5054561;28;20037;-73
2022/01/28 02:53:55;;;;;;;14.35;2.10;;;;;;;4.57;100.00;103214.94;5055009;28;20116;-74
2022/01/28 02:56:32;;;;;;;15.75;2.25;;;;;;;4.57;100.00;103222.81;5054470;28;20032;-74
2022/01/28 02:58:58;;;;;;;23.67;2.70;;;;;;;4.61;100.00;103218.53;5054940;28;20131;-73
2022/01/28 03:01:24;;;;;;;18.63;2.35;;;;;;;4.64;100.00;103219.44;5054523;28;20021;-74
2022/01/28 03:03:51;;;;;;;19.60;2.50;;;;;;;4.75;100.00;103230.16;5054996;28;20025;-73
2022/01/28 03:06:18;;;;;;;16.05;2.50;;;;;;;4.79;100.00;103228.47;5054548;28;20079;-74
2022/01/28 03:08:52;;;;;;;7.05;2.03;;;;;;;4.76;100.00;103230.16;5053606;28;20476;-71
2022/01/28 03:16:12;;;;;;;8.90;2.00;;;;;;;4.84;100.00;103242.56;5054572;28;20607;-73
2022/01/28 03:18:49;;;;;;;14.38;2.15;;;;;;;4.91;100.00;103241.78;5054729;28;20078;-74
2022/01/28 03:21:22;;;;;;;12.77;1.98;;;;;;;4.90;100.00;103240.03;5054572;28;20029;-73
2022/01/28 03:23:48;;;;;;;12.35;2.47;;;;;;;4.93;100.00;103242.72;5049233;28;20034;-74
2022/01/28 03:26:14;;;;;;;16.52;2.00;;;;;;;4.94;100.00;103233.97;5039265;28;20028;-73
2022/01/28 03:28:40;;;;;;;14.27;2.30;;;;;;;4.97;100.00;103238.41;5054141;28;20036;-73
2022/01/28 03:31:05;;;;;;;13.32;2.30;;;;;;;4.96;100.00;103219.13;5054390;28;20025;-74
2022/01/28 03:33:30;;;;;;;7.78;1.73;;;;;;;4.93;100.00;103224.31;5052719;28;20464;-73
2022/01/28 03:35:56;;;;;;;15.25;2.78;;;;;;;4.89;99.80;103231.25;5034138;28;20122;-74
2022/01/28 03:38:21;;;;;;;11.77;1.77;;;;;;;4.81;100.00;103234.59;5053588;28;20079;-73
2022/01/28 03:40:48;;;;;;;13.90;2.20;;;;;;;4.76;100.00;103234.53;5054179;28;20477;-72
2022/01/28 03:43:14;;;;;;;10.32;2.10;;;;;;;4.72;100.00;103230.09;5053878;28;20025;-74
2022/01/28 03:45:39;;;;;;;9.63;2.05;;;;;;;4.76;99.79;103247.66;5054002;28;20366;-73
2022/01/28 03:48:05;;;;;;;11.48;1.63;;;;;;;4.76;99.34;103250.28;5053565;28;20472;-74
2022/01/28 03:50:33;;;;;;;16.58;2.00;;;;;;;4.69;99.46;103249.31;5053779;28;20028;-72
2022/01/28 03:53:00;;;;;;;14.70;2.47;;;;;;;4.65;99.27;103251.84;5053653;28;20056;-73
2022/01/28 03:55:25;;;;;;;12.57;1.90;;;;;;;4.64;97.92;103248.31;5053586;28;20147;-74
2022/01/28 03:57:51;;;;;;;13.35;1.90;;;;;;;4.65;97.72;103255.31;5053623;28;20354;-72
2022/01/28 04:00:17;;;;;;;11.93;1.77;;;;;;;4.59;97.62;103266.59;5053386;28;20053;-73
2022/01/28 04:02:44;;;;;;;9.50;1.40;;;;;;;4.62;96.26;103264.88;5034161;28;20030;-73
2022/01/28 04:13:25;;;;;;;14.13;2.20;;;;;;;4.48;96.60;103262.00;5053869;28;20090;-73
2022/01/28 04:16:14;;;;;;;10.18;2.35;;;;;;;4.47;96.60;103258.50;5052883;28;20086;-73
2022/01/28 04:18:36;;;;;;;12.23;1.92;;;;;;;4.49;96.37;103264.66;5052844;28;20036;-74
2022/01/28 04:21:01;;;;;;;11.45;2.20;;;;;;;4.47;96.35;103273.34;5053396;28;20055;-73
2022/01/28 04:23:26;;;;;;;9.57;2.22;;;;;;;4.43;96.29;103273.28;5053371;28;20456;-73
2022/01/28 04:25:51;;;;;;;10.90;1.67;;;;;;;4.37;97.24;103277.53;5053009;28;20041;-73
2022/01/28 04:28:17;;;;;;;12.10;1.95;;;;;;;4.34;97.29;103286.22;5053475;28;20056;-73
2022/01/28 04:30:42;;;;;;;14.38;2.40;;;;;;;4.33;98.24;103279.19;5052868;28;20490;-73
2022/01/28 04:33:07;;;;;;;9.13;1.63;;;;;;;4.32;98.35;103285.28;5053049;28;20070;-73
2022/01/28 04:35:32;;;;;;;9.85;1.83;;;;;;;4.29;98.38;103292.22;5053406;28;20387;-73
2022/01/28 04:40:33;;;;;;;9.38;1.92;;;;;;;4.15;98.60;103300.69;5053050;28;20094;-73
2022/01/28 04:43:16;;;;;;;15.68;2.05;;;;;;;4.13;99.45;103291.00;5053073;28;20496;-73
2022/01/28 04:48:29;;;;;;;10.20;1.65;;;;;;;4.13;99.95;103293.63;5052528;28;20103;-73
2022/01/28 05:03:57;;;;;;;20.90;2.67;;;;;;;3.98;100.00;103295.06;5052653;28;20033;-74
2022/01/28 05:06:53;;;;;;;18.90;2.38;;;;;;;3.91;100.00;103309.78;5052661;28;20047;-73
2022/01/28 05:27:28;;;;;;;16.73;2.30;;;;;;;3.73;100.00;103318.13;5052555;28;20112;-73
2022/01/28 05:29:53;;;;;;;12.13;2.28;;;;;;;3.72;100.00;103315.44;5051949;28;20060;-73
2022/01/28 05:32:19;;;;;;;16.85;2.92;;;;;;;3.68;100.00;103322.31;5051906;28;20069;-73
2022/01/28 05:34:44;;;;;;;16.73;4.05;;;;;;;3.72;100.00;103320.66;5052119;28;20025;-73
2022/01/28 05:37:10;;;;;;;17.33;2.60;;;;;;;3.73;100.00;103318.13;5052300;28;20043;-73
2022/01/28 05:39:35;;;;;;;15.27;2.60;;;;;;;3.70;100.00;103323.25;5052239;28;20033;-73
2022/01/28 05:42:01;;;;;;;26.90;7.53;;;;;;;3.72;100.00;103328.53;5051364;28;20025;-73
2022/01/28 05:44:27;;;;;;;22.52;7.22;;;;;;;3.72;100.00;103331.16;5052207;28;20461;-74
2022/01/28 05:46:55;;;;;;;20.42;6.88;;;;;;;3.69;100.00;103325.84;5052258;28;20033;-72
2022/01/28 05:49:21;;;;;;;17.40;7.00;;;;;;;3.74;100.00;103326.84;5051904;28;20021;-73
2022/01/28 05:51:46;;;;;;;16.48;4.15;;;;;;;3.77;100.00;103325.19;5051544;28;20048;-73
2022/01/28 05:54:11;;;;;;;14.80;3.58;;;;;;;3.77;100.00;103334.78;5051662;28;20408;-73
2022/01/28 05:56:37;;;;;;;21.95;4.20;;;;;;;3.76;100.00;103343.50;5052005;28;20373;-73
2022/01/28 05:59:02;;;;;;;13.98;3.08;;;;;;;3.71;100.00;103350.34;5052190;28;20068;-73
2022/01/28 06:01:28;;;;;;;8.35;3.22;;;;;;;3.67;100.00;103349.41;5052027;28;20029;-73
2022/01/28 06:03:53;;;;;;;13.57;2.20;;;;;;;3.61;100.00;103346.63;5051107;28;20086;-73
2022/01/28 06:06:20;;;;;;;10.95;1.77;;;;;;;3.53;100.00;103340.28;5051379;28;20302;-74
2022/01/28 06:08:47;;;;;;;29.08;9.20;;;;;;;3.50;100.00;103355.94;5052096;28;20044;-73
2022/01/28 06:11:13;;;;;;;30.50;10.32;;;;;;;3.43;100.00;103355.78;5051939;28;20112;-73
2022/01/28 06:13:38;;;;;;;25.20;8.05;;;;;;;3.39;100.00;103358.28;5051070;28;20032;-73
2022/01/28 06:16:04;;;;;;;20.20;2.60;;;;;;;3.38;100.00;103364.41;5051794;28;20036;-72
2022/01/28 06:18:29;;;;;;;14.80;3.35;;;;;;;3.40;100.00;103362.69;5039363;28;20044;-72
2022/01/28 06:20:54;;;;;;;19.63;3.90;;;;;;;3.42;100.00;103374.09;5031423;28;20116;-72
2022/01/28 06:23:20;;;;;;;17.88;4.85;;;;;;;3.43;100.00;103366.28;5037153;28;20044;-73
2022/01/28 06:25:45;;;;;;;13.13;3.65;;;;;;;3.42;100.00;103369.72;5051343;28;20033;-72
2022/01/28 06:28:11;;;;;;;11.63;3.50;;;;;;;3.42;100.00;103392.44;5052082;28;20021;-73
2022/01/28 06:30:36;;;;;;;14.25;3.90;;;;;;;3.44;100.00;103393.38;5053406;28;20587;-76
2022/01/28 06:33:01;;;;;;;12.07;2.75;;;;;;;3.41;100.00;103388.03;5055301;28;20032;-73
2022/01/28 06:35:27;;;;;;;14.02;2.20;;;;;;;3.35;100.00;103391.41;5054272;28;20484;-72
2022/01/28 06:37:52;;;;;;;16.30;2.33;;;;;;;3.29;100.00;103388.59;5055126;28;20052;-72
2022/01/28 06:40:17;;;;;;;14.68;3.25;;;;;;;3.34;100.00;103409.66;5054475;28;20031;-72
2022/01/28 06:42:43;;;;;;;15.75;2.58;;;;;;;3.32;100.00;103416.59;5054200;28;20032;-75
2022/01/28 06:45:09;;;;;;;10.35;2.10;;;;;;;3.28;100.00;103413.03;5047174;28;20139;-74
2022/01/28 06:47:35;;;;;;;16.00;2.40;;;;;;;3.23;100.00;103417.25;5040271;28;20477;-75
2022/01/28 06:50:02;;;;;;;8.10;1.60;;;;;;;3.15;100.00;103426.63;5036674;28;20400;-75
2022/01/28 06:52:28;;;;;;;13.02;2.10;;;;;;;3.05;100.00;103428.97;5054326;28;20041;-74
2022/01/28 06:54:53;;;;;;;13.23;2.42;;;;;;;2.94;100.00;103426.06;5053852;28;20488;-74
2022/01/28 06:57:18;;;;;;;10.68;2.58;;;;;;;2.86;100.00;103430.16;5054710;28;20021;-75
2022/01/28 06:59:44;;;;;;;12.15;2.90;;;;;;;2.83;100.00;103434.44;5054986;28;20045;-74
2022/01/28 07:02:09;;;;;;;8.35;1.98;;;;;;;2.82;100.00;103445.75;5054805;28;20047;-75
2022/01/28 07:04:35;;;;;;;14.25;2.42;;;;;;;2.76;100.00;103447.34;5054722;28;20036;-75
2022/01/28 07:07:00;;;;;;;16.65;2.67;;;;;;;2.73;100.00;103451.59;5053667;28;20025;-75
2022/01/28 07:09:26;;;;;;;19.75;3.55;;;;;;;2.66;100.00;103447.91;5054402;28;20048;-74
2022/01/28 07:11:52;;;;;;;16.55;2.72;;;;;;;2.62;100.00;103439.09;5052707;28;20465;-75
2022/01/28 07:14:17;;;;;;;10.95;3.20;;;;;;;2.57;100.00;103439.75;5050459;28;20029;-73
2022/01/28 07:16:42;;;;;;;13.82;3.08;;;;;;;2.50;100.00;103440.44;5048887;28;20049;-73
2022/01/28 07:19:09;;;;;;;15.57;3.20;;;;;;;2.50;100.00;103446.53;5054308;28;20385;-73
2022/01/28 07:21:35;;;;;;;17.15;3.38;;;;;;;2.44;100.00;103439.41;5054266;28;20033;-73
2022/01/28 07:24:00;;;;;;;15.45;3.33;;;;;;;2.40;100.00;103441.88;5054215;28;20032;-73
2022/01/28 07:26:25;;;;;;;14.63;3.75;;;;;;;2.38;100.00;103439.22;5036618;28;20405;-73
2022/01/28 07:28:52;;;;;;;18.33;3.83;;;;;;;2.35;100.00;103436.50;5050062;28;20113;-74
2022/01/28 07:31:18;;;;;;;16.92;3.63;;;;;;;2.35;100.00;103440.84;5054264;28;20029;-74
2022/01/28 07:33:44;;;;;;;15.63;3.75;;;;;;;2.33;100.00;103445.13;5055188;28;20094;-75
2022/01/28 07:36:09;;;;;;;8.23;3.38;;;;;;;2.29;100.00;103444.16;5039036;28;20439;-73
2022/01/28 07:38:35;;;;;;;16.40;4.53;;;;;;;2.27;100.00;103446.72;5047068;28;20029;-73
2022/01/28 07:41:01;;;;;;;11.25;4.18;;;;;;;2.31;100.00;103455.53;5065161;28;20029;-73
2022/01/28 07:43:27;;;;;;;12.52;3.42;;;;;;;2.36;100.00;103459.19;5060624;28;20028;-74
2022/01/28 07:45:52;;;;;;;18.05;2.97;;;;;;;2.43;100.00;103468.09;5061142;28;20056;-75
2022/01/28 07:48:18;;;;;;;11.73;2.70;;;;;;;2.53;100.00;103471.91;5062402;28;20473;-75
2022/01/28 07:50:43;;;;;;;16.02;3.35;;;;;;;2.56;100.00;103472.03;5064802;28;20017;-75
2022/01/28 07:53:11;;;;;;;13.13;2.70;;;;;;;2.61;100.00;103470.44;5053363;28;20056;-75
2022/01/28 07:55:36;;;;;;;15.60;2.92;;;;;;;2.70;100.00;103482.88;5053508;28;20021;-73
2022/01/28 07:58:02;;;;;;;20.20;2.95;;;;;;;2.77;100.00;103484.88;5050185;28;20035;-76
2022/01/28 08:00:27;;;;;;;14.18;3.28;;;;;;;2.82;100.00;103492.88;5041880;28;20037;-74
2022/01/28 08:02:53;;;;;;;18.55;3.00;;;;;;;2.89;100.00;103489.56;5046651;28;20076;-74
2022/01/28 08:05:19;;;;;;;15.63;2.45;;;;;;;3.00;100.00;103498.63;5038632;28;20022;-73
2022/01/28 08:07:44;;;;;;;11.88;2.90;;;;;;;3.13;100.00;103504.25;5044576;28;20087;-72
2022/01/28 08:10:10;;;;;;;18.52;3.58;;;;;;;3.19;100.00;103497.44;5039895;28;20068;-73
2022/01/28 08:12:52;;;;;;;15.95;3.45;;;;;;;3.27;100.00;103502.91;5053454;28;20016;-72
2022/01/28 08:15:19;;;;;;;18.55;3.42;;;;;;;3.31;100.00;103501.25;5053660;28;20117;-73
2022/01/28 08:17:45;;;;;;;13.13;3.58;;;;;;;3.38;100.00;103511.06;5052691;28;20045;-74
2022/01/28 08:20:11;;;;;;;13.25;2.70;;;;;;;3.47;100.00;103513.06;5052962;28;20448;-74
2022/01/28 08:22:51;;;;;;;17.70;3.22;;;;;;;3.47;100.00;103510.44;5046953;28;20031;-74
2022/01/28 08:25:19;;;;;;;15.63;6.90;;;;;;;3.49;100.00;103520.13;5037106;28;20068;-73
2022/01/28 08:27:45;;;;;;;14.50;4.90;;;;;;;3.48;100.00;103514.81;5053485;28;20448;-74
2022/01/28 08:30:12;;;;;;;16.58;3.15;;;;;;;3.54;100.00;103515.91;5043994;28;20029;-74
2022/01/28 08:32:38;;;;;;;19.95;3.63;;;;;;;3.61;100.00;103522.19;5047575;28;20020;-71
2022/01/28 08:35:04;;;;;;;20.98;4.05;;;;;;;3.71;100.00;103523.31;5050399;28;20032;-73
2022/01/28 08:37:29;;;;;;;13.48;2.40;;;;;;;3.89;100.00;103526.44;5044549;28;20084;-72
2022/01/28 08:39:54;;;;;;;13.95;3.00;;;;;;;4.09;100.00;103528.69;5033649;28;20021;-74
2022/01/28 08:42:23;;;;;;;15.93;2.90;;;;;;;4.23;100.00;103519.44;5048498;28;20036;-72
2022/01/28 08:44:48;;;;;;;12.23;2.47;;;;;;;4.40;100.00;103526.84;5042456;28;20021;-74
2022/01/28 08:47:14;;;;;;;13.80;2.45;;;;;;;4.55;100.00;103529.84;5049840;28;20469;-73
2022/01/28 08:49:39;;;;;;;18.13;3.28;;;;;;;4.66;100.00;103530.06;5051007;28;20060;-73
2022/01/28 08:52:05;;;;;;;13.45;3.42;;;;;;;4.70;100.00;103528.41;5049195;28;20051;-72
2022/01/28 08:54:30;;;;;;;11.52;2.80;;;;;;;4.66;100.00;103532.69;5034379;28;20061;-73
2022/01/28 08:56:56;;;;;;;11.35;2.70;;;;;;;4.68;100.00;103536.25;5052139;28;20047;-74
2022/01/28 08:59:21;;;;;;;12.63;2.97;;;;;;;4.70;100.00;103528.41;5052690;28;20040;-73
2022/01/28 09:01:46;;;;;;;12.00;2.85;;;;;;;4.70;100.00;103518.78;5052227;28;20132;-73
2022/01/28 09:04:12;;;;;;;16.15;2.85;;;;;;;4.75;100.00;103532.91;5051612;28;20072;-73
2022/01/28 09:06:37;;;;;;;18.45;3.22;;;;;;;4.84;100.00;103532.22;5052243;28;20033;-73
2022/01/28 09:09:03;;;;;;;15.88;4.45;;;;;;;5.06;100.00;103530.97;5052416;28;20060;-73
2022/01/28 09:11:44;;;;;;;14.13;2.65;;;;;;;5.25;100.00;103542.75;5051721;28;20534;-73
2022/01/28 09:14:10;;;;;;;12.27;2.38;;;;;;;5.59;98.66;103550.44;5042312;28;20043;-73
2022/01/28 09:16:35;;;;;;;16.90;3.10;;;;;;;5.88;97.40;103555.34;5032435;28;20434;-72
2022/01/28 09:19:00;;;;;;;13.55;2.97;;;;;;;5.95;96.34;103557.25;5032357;28;20029;-73
2022/01/28 09:21:26;;;;;;;15.20;2.88;;;;;;;6.11;95.93;103552.28;5032880;28;20080;-73
2022/01/28 09:23:51;;;;;;;15.85;2.67;;;;;;;6.30;95.76;103554.38;5047449;28;20024;-73
2022/01/28 09:26:17;;;;;;;12.05;2.45;;;;;;;6.71;94.51;103569.97;5051915;28;20124;-73
2022/01/28 09:28:42;;;;;;;17.25;2.70;;;;;;;7.03;92.25;103563.38;5052798;28;20043;-72
2022/01/28 09:31:08;;;;;;;14.18;2.80;;;;;;;7.40;90.21;103557.72;5050133;28;20021;-71
2022/01/28 09:33:33;;;;;;;17.17;3.10;;;;;;;8.09;89.53;103557.56;5042014;28;20442;-73
2022/01/28 09:35:58;;;;;;;13.50;3.08;;;;;;;8.95;83.96;103558.25;5051620;28;20037;-72
2022/01/28 09:38:24;;;;;;;19.50;3.30;;;;;;;9.62;78.43;103561.19;5052089;28;20037;-72
2022/01/28 09:40:50;;;;;;;16.80;4.05;;;;;;;10.59;77.04;103557.78;5051388;28;20029;-73
2022/01/28 09:43:15;;;;;;;10.65;3.03;;;;;;;11.53;72.65;103570.72;5050528;28;20029;-72
2022/01/28 09:45:41;;;;;;;20.70;3.60;;;;;;;12.46;68.82;103557.72;5051124;28;20036;-73
2022/01/28 09:48:06;;;;;;;16.50;3.42;;;;;;;13.55;65.66;103551.19;5051629;28;20052;-73
2022/01/28 09:50:33;;;;;;;19.23;4.50;;;;;;;14.06;60.06;103556.63;5051788;28;20048;-73
2022/01/28 09:52:59;;;;;;;23.17;4.18;;;;;;;14.49;57.91;103551.47;5051074;28;20045;-73
2022/01/28 09:55:25;;;;;;;22.20;3.67;;;;;;;14.96;56.53;103539.06;5050366;28;20047;-73
2022/01/28 09:57:54;;;;;;;15.80;3.40;;;;;;;15.33;55.26;103535.63;5045577;28;20439;-72
2022/01/28 10:00:22;;;;;;;15.73;3.08;;;;;;;15.08;55.54;103538.78;5050940;28;20016;-73
2022/01/28 10:03:03;;;;;;;14.60;3.97;;;;;;;15.24;53.54;103546.47;5051116;28;20083;-72
2022/01/28 10:05:28;;;;;;;17.17;3.40;;;;;;;15.63;52.96;103540.31;5033866;28;20536;-73
2022/01/28 10:08:06;;;;;;;16.42;3.42;;;;;;;15.88;50.55;103537.94;5048119;28;20124;-73
2022/01/28 10:10:40;;;;;;;11.55;2.88;;;;;;;15.99;51.27;103545.72;5053583;28;20036;-72
2022/01/28 10:13:16;;;;;;;14.15;2.90;;;;;;;16.29;50.24;103556.56;5051578;28;20550;-72
2022/01/28 10:15:53;;;;;;;11.95;2.38;;;;;;;16.33;48.74;103552.88;5047563;28;20513;-73
2022/01/28 10:18:18;;;;;;;11.65;2.75;;;;;;;15.36;51.25;103543.56;5055810;28;20021;-74
2022/01/28 10:20:44;;;;;;;16.67;3.20;;;;;;;16.11;50.59;103557.91;5050103;28;20039;-74
2022/01/28 10:23:12;;;;;;;14.35;3.10;;;;;;;16.06;50.09;103555.31;5036088;28;20021;-73
2022/01/28 10:25:38;;;;;;;16.38;2.78;;;;;;;16.02;50.05;103562.56;5048141;28;20029;-73
2022/01/28 10:28:07;;;;;;;11.18;2.75;;;;;;;16.40;48.18;103567.84;5055306;28;20445;-73
2022/01/28 10:30:36;;;;;;;10.57;2.65;;;;;;;15.84;46.92;103569.22;5055930;28;20029;-73
2022/01/28 10:33:14;;;;;;;14.18;3.42;;;;;;;15.68;49.00;103566.00;5055463;28;20033;-73
2022/01/28 10:35:49;;;;;;;10.60;2.55;;;;;;;15.61;50.68;103558.16;5055293;28;20039;-75
2022/01/28 10:38:36;;;;;;;12.30;2.10;;;;;;;15.15;49.83;103555.56;5043500;28;20021;-75
2022/01/28 10:41:25;;;;;;;9.10;2.22;;;;;;;14.97;50.16;103564.81;5041861;28;20048;-74
2022/01/28 10:43:53;;;;;;;12.50;2.38;;;;;;;15.20;49.83;103558.13;5054993;28;20036;-75
2022/01/28 10:46:31;;;;;;;12.93;2.30;;;;;;;15.56;50.63;103559.16;5054973;28;20333;-75
2022/01/28 10:49:02;;;;;;;12.10;2.30;;;;;;;17.23;45.71;103553.13;5054940;28;20033;-75
2022/01/28 10:51:49;;;;;;;15.85;2.97;;;;;;;16.89;46.20;103546.91;5054652;28;20021;-73
2022/01/28 10:54:16;;;;;;;13.18;2.90;;;;;;;16.97;44.85;103552.97;5054991;28;20037;-73
2022/01/28 10:56:49;;;;;;;14.48;2.78;;;;;;;16.80;46.99;103549.84;5054334;28;20052;-74
2022/01/28 10:59:18;;;;;;;13.48;2.95;;;;;;;17.11;44.62;103549.91;5054667;28;20025;-74
2022/01/28 11:01:45;;;;;;;14.07;2.60;;;;;;;17.43;43.63;103555.19;5054746;28;20549;-74
2022/01/28 11:04:12;;;;;;;10.23;2.25;;;;;;;17.97;42.55;103556.22;5054797;28;20037;-74
2022/01/28 11:06:41;;;;;;;14.35;2.38;;;;;;;18.06;40.94;103541.63;5054348;28;20546;-73
2022/01/28 11:09:08;;;;;;;12.93;2.90;;;;;;;18.46;40.62;103543.78;5053147;28;20041;-73
2022/01/28 11:11:34;;;;;;;10.18;2.10;;;;;;;18.42;40.68;103552.88;5054346;28;20021;-74
2022/01/28 11:13:59;;;;;;;13.45;2.67;;;;;;;16.45;44.20;103544.53;5054312;28;20040;-74
2022/01/28 11:16:26;;;;;;;13.77;2.47;;;;;;;15.17;47.35;103544.88;5054570;28;20032;-75
2022/01/28 11:18:53;;;;;;;12.82;2.58;;;;;;;14.05;52.13;103538.00;5053515;28;20025;-74
2022/01/28 11:21:27;;;;;;;14.57;2.40;;;;;;;12.99;55.74;103525.25;5054649;28;20031;-74
2022/01/28 11:24:06;;;;;;;12.40;2.35;;;;;;;11.66;60.17;103515.78;5054370;28;20033;-73
2022/01/28 11:26:49;;;;;;;12.90;2.92;;;;;;;10.92;63.60;103518.81;5053884;28;20024;-74
2022/01/28 11:29:20;;;;;;;15.10;2.70;;;;;;;10.98;61.95;103514.38;5053936;28;20039;-73
2022/01/28 11:31:48;;;;;;;11.23;2.20;;;;;;;12.39;58.69;103499.31;5036729;28;20389;-74
2022/01/28 11:34:15;;;;;;;10.75;2.10;;;;;;;13.74;53.78;103495.88;5053559;28;20025;-74
2022/01/28 11:36:40;;;;;;;14.77;3.17;;;;;;;14.97;50.98;103511.44;5054200;28;20128;-73
2022/01/28 11:39:41;;;;;;;12.38;2.67;;;;;;;15.61;47.50;103502.06;5053516;28;20107;-73
2022/01/28 11:42:11;;;;;;;14.63;2.40;;;;;;;15.78;47.08;103509.66;5053676;28;20041;-73
2022/01/28 11:44:49;;;;;;;10.02;2.47;;;;;;;16.35;45.05;103494.88;5053715;28;20048;-73
2022/01/28 11:47:28;;;;;;;12.88;2.90;;;;;;;16.33;45.24;103496.72;5054035;28;20025;-73
2022/01/28 11:49:54;;;;;;;12.52;3.00;;;;;;;16.26;45.66;103485.31;5053494;28;20499;-73
2022/01/28 11:52:25;;;;;;;17.67;3.50;;;;;;;16.45;43.94;103493.72;5053833;28;20037;-73
2022/01/28 11:54:51;;;;;;;19.67;3.03;;;;;;;16.48;46.50;103493.66;5054215;28;20112;-74
2022/01/28 11:57:18;;;;;;;14.88;3.05;;;;;;;16.77;43.63;103493.75;5052923;28;20025;-74
2022/01/28 11:59:45;;;;;;;13.60;3.17;;;;;;;16.92;44.34;103484.41;5052945;28;20468;-74
2022/01/28 12:02:15;;;;;;;12.52;2.88;;;;;;;17.88;41.69;103481.41;5053677;28;20159;-73
2022/01/28 12:04:43;;;;;;;13.50;3.00;;;;;;;17.95;41.16;103474.94;5053686;28;20029;-73
2022/01/28 12:07:21;;;;;;;10.80;2.45;;;;;;;17.82;41.02;103469.09;5053881;28;20027;-73
2022/01/28 12:09:52;;;;;;;13.73;3.00;;;;;;;17.25;42.71;103462.91;5052911;28;20029;-74
2022/01/28 12:12:47;;;;;;;10.68;2.65;;;;;;;16.62;44.46;103453.13;5053100;28;20033;-73
2022/01/28 12:15:15;;;;;;;12.95;2.90;;;;;;;16.69;44.38;103441.31;5053340;28;20025;-73
2022/01/28 12:17:44;;;;;;;12.13;3.13;;;;;;;16.28;45.51;103439.81;5035118;28;20370;-73
2022/01/28 12:20:15;;;;;;;13.07;3.10;;;;;;;16.45;46.18;103434.03;5053269;28;20033;-74
2022/01/28 12:22:59;;;;;;;14.75;2.92;;;;;;;16.22;44.68;103427.50;5053281;28;20501;-73
2022/01/28 12:25:36;;;;;;;13.02;2.97;;;;;;;14.29;49.15;103445.22;5052768;28;20190;-73
2022/01/28 12:28:15;;;;;;;14.38;3.30;;;;;;;12.66;55.11;103436.13;5052758;28;20048;-74
2022/01/28 12:30:47;;;;;;;14.90;3.70;;;;;;;11.64;59.30;103436.19;5052771;28;20121;-74
2022/01/28 12:33:13;;;;;;;16.73;3.80;;;;;;;11.01;63.06;103433.06;5052319;28;20028;-73
2022/01/28 12:35:41;;;;;;;17.95;4.72;;;;;;;10.57;65.54;103424.41;5053481;28;20029;-74
2022/01/28 12:38:07;;;;;;;15.57;3.92;;;;;;;10.21;67.73;103410.34;5053176;28;20542;-73
2022/01/28 12:40:36;;;;;;;16.02;3.78;;;;;;;10.19;70.01;103412.09;5052239;28;20029;-76
2022/01/28 12:43:04;;;;;;;16.13;3.90;;;;;;;10.88;66.76;103418.97;5052996;28;20041;-75
2022/01/28 12:45:30;;;;;;;17.75;4.35;;;;;;;11.88;62.89;103413.00;5053142;28;20021;-75
2022/01/28 12:47:55;;;;;;;12.70;3.78;;;;;;;12.72;58.63;103401.50;5052943;28;20028;-74